x

Diamond Shoals (41025) Wave Buoy

9:50 - Mon 26th Jan 2015 All times are EST. -5 hours from GMT.

  • Sig Wave height 4.3ft
  • Swell Direction
  • Peak Period 4s
  • Average Period 4s
  • Wind
    25mph, 29mph gusts
  • Sea Temp 70°f
  • Ar Temp 51°f
  • Sea Pressure 999.9mb
  • Diamond Shoals
  • Diamond Shoals

More Historic Weather Station data

Upgrade to MSW Pro to gain access to the past 30 days of data for over 8000 Wavebouys and Weather Stations around the globe.

Join Pro

Comparision Forecast

View Surf forecast
   
Seg 01/26 9:50 4.5ft 4s 4s 25 29 mph 999.9mb 70f 51f
8:50  -   -   -  25 31 mph 999.4mb 71f 52f
7:50 4ft 4s 4s 25 29 mph 999.5mb 71f 54f
6:50 3.5ft 7s 5s 22 27 mph 999mb 70f 55f
5:50 3.5ft 7s 5s 18 22 mph 998.7mb 70f 55f
4:50 3.5ft 6s 6s 13 18 mph 998.6mb 71f 55f
3:50 3.5ft 7s 6s 11 16 mph 998.7mb 71f 57f
2:50 3ft 7s 6s 7 9 mph 998.7mb 71f 58f
1:50 3ft 8s 6s 7 9 mph 998.5mb 71f 58f
12:50 3.5ft 8s 6s 2 4 mph 1000.3mb 70f 58f
11:50 3ft 8s 6s 7 9 mph 1002.4mb 70f 58f
10:50 3.5ft 8s 6s 11 13 mph 1003.4mb 71f 58f
9:50 3.5ft 8s 5s 11 16 mph 1003.9mb 70f 58f
8:50 3.5ft 9s 5s 13 16 mph 1004.7mb 69f 58f
7:50 3.5ft 8s 5s 9 16 mph 1005.3mb 69f 58f
6:50 3.5ft 8s 5s 16 20 mph 1005.4mb 69f 58f
5:50 3.5ft 8s 5s 11 16 mph 1005.8mb 69f 60f
4:50 3.5ft 8s 6s 11 13 mph 1006.3mb 69f 62f
3:50 4.5ft 8s 6s 13 16 mph 1006.9mb 70f 64f
2:50 4.5ft 8s 6s 18 22 mph 1008.1mb 69f 63f
1:50 3.5ft 8s 5s 16 20 mph 1009.2mb 69f 62f
12:50 3.5ft 9s 6s 16 25 mph 1010mb 69f 61f
Dom 01/25 11:50 3.5ft 9s 6s 13 18 mph 1011.2mb 69f 60f
10:50 3.5ft 8s 6s 13 20 mph 1011.4mb 69f 59f
9:50 3.5ft 8s 6s 16 20 mph 1012mb 69f 57f
8:50 3.5ft 9s 7s 13 18 mph 1012.2mb 69f 56f
7:50 3.5ft 9s 7s 11 16 mph 1012.5mb 69f 55f
6:50 3.5ft 9s 7s 9 16 mph 1013mb 69f 54f
5:50 3.5ft 9s 7s 7 11 mph 1013mb 69f 52f
4:50 3.5ft 10s 7s 2 7 mph 1012.8mb 69f 51f
3:50 4ft 10s 7s 2 4 mph 1013.2mb 69f 51f
2:50 4ft 10s 6s 2 4 mph 1013.6mb 69f 49f
1:50 4.5ft 10s 7s 2 7 mph 1013.6mb 69f 48f
12:50 5ft 10s 6s 7 11 mph 1013.8mb 69f 47f
11:50 4.5ft 10s 6s 7 13 mph 1014.3mb 69f 47f
10:50 5.5ft 10s 6s 11 16 mph 1015.6mb 69f 47f
9:50 5ft 10s 5s 16 20 mph 1014.5mb 70f 48f
8:50 6ft 11s 5s 18 25 mph 1013.9mb 70f 48f
7:50 7ft 10s 6s 20 27 mph 1013.1mb 70f 48f
6:50 6ft 5s 5s 22 29 mph 1012.2mb 70f 48f
5:50 6.5ft 11s 5s 27 34 mph 1011.2mb 70f 48f
4:50 7ft 11s 5s 25 31 mph 1009.9mb 71f 48f
3:50 8ft 10s 6s 27 34 mph 1009.7mb 71f 49f
2:50 7.5ft 11s 6s 27 34 mph 1009.2mb 71f 50f
1:50 7.5ft 11s 6s 31 38 mph 1008.6mb 71f 51f
12:50 8.5ft 11s 6s 27 34 mph 1008.1mb 71f 52f
Sáb 01/24 11:50 9ft 11s 6s 29 38 mph 1007.3mb 71f 52f
10:50 8.5ft 10s 6s 29 36 mph 1006.9mb 71f 53f
9:50 8.5ft 10s 6s 27 31 mph 1006.4mb 71f 52f
8:50 9ft 5s 6s 25 31 mph 1006.1mb 71f 51f
7:50 9.5ft 11s 6s 25 31 mph 1005.5mb 71f 50f
6:50 9.5ft 10s 6s 29 38 mph 1004.3mb 71f 50f
5:50 10ft 11s 7s 29 36 mph 1002.7mb 71f 50f
4:50 11ft 10s 6s 29 36 mph 1000.6mb 71f 49f
3:50 13ft 11s 7s 31 38 mph 999.1mb 72f 49f
2:50 11.5ft 11s 7s 34 43 mph 998mb 72f 49f
1:50 13.5ft 11s 8s 20 27 mph 996.3mb 72f 51f
12:50 14ft 11s 8s 22 29 mph 996.4mb 72f 52f
11:50 13ft 11s 8s 18 25 mph 995.7mb 73f 54f
10:50 16.5ft 11s 8s 22 29 mph 995.1mb 73f -
9:50 19.5ft 11s 8s 38 49 mph 993.6mb 73f 69f
8:50  -   -   -  34 43 mph 995.2mb 73f 70f
7:50 18.5ft 10s 8s 22 29 mph 997.3mb 73f 68f
6:50 21ft 11s 8s 34 40 mph 998.5mb 73f 68f
5:50 21.5ft 9s 8s 40 56 mph 998mb 73f 69f
4:50 19.5ft 10s 8s 43 56 mph 997.9mb 73f 69f
3:50 18ft 10s 8s 38 49 mph 1000.5mb 73f 67f
2:50 14.5ft 10s 7s 38 45 mph 1002.5mb 73f 68f
1:50 15ft 9s 7s 40 51 mph 1004.3mb 73f 69f
12:50 12.5ft 8s 6s 40 51 mph 1006.3mb 73f 70f
Sex 01/23 11:50 11ft 7s 6s 40 47 mph 1008.3mb 73f 70f
10:50 9ft 7s 6s 38 45 mph 1010.2mb 74f 66f
9:50 7.5ft 6s 5s 34 40 mph 1012.2mb 74f 64f
8:50 6ft 6s 5s 31 40 mph 1013.7mb 74f 64f
7:50 5ft 5s 4s 29 36 mph 1015.5mb 74f 64f
6:50 4.5ft 9s 5s 27 34 mph 1016.7mb 73f 63f
5:50 4ft 9s 5s 22 29 mph 1018.5mb 73f 61f
4:50 3.5ft 9s 5s 18 22 mph 1019.4mb 73f 61f
3:50 3.5ft 9s 5s 16 20 mph 1020.2mb 73f 61f
2:50 4.5ft 9s 6s 11 16 mph 1020.7mb 73f 60f
1:50 4.5ft 9s 6s 11 16 mph 1021.6mb 73f 59f
12:50 4ft 7s 6s 13 18 mph 1022.6mb 73f 59f
11:50 4ft 8s 6s 9 13 mph 1024.4mb 73f 58f
10:50 4.5ft 8s 6s 9 16 mph 1025.2mb 73f 57f
9:50 4.5ft 8s 6s 11 18 mph 1025.8mb 73f 56f
8:50 4.5ft 8s 6s 16 20 mph 1025.6mb 73f 54f
7:50 4.5ft 6s 6s 16 20 mph 1026.1mb 73f 53f
6:50 4.5ft 8s 6s 16 22 mph 1026.6mb 73f 53f
5:50 4.5ft 6s 6s 18 22 mph 1026.7mb 73f 53f
4:50 4.5ft 8s 6s 18 22 mph 1026.5mb 73f 53f
3:50 5ft 8s 6s 18 22 mph 1026.2mb 73f 53f